Kezdőlap
METAR-TAF:

METAR-TAF

Repülőterek :

Gaspé, Québec, Kanada

földrajzi szélesség: 48-46N, földrajzi hosszúság: 064-29W, magasság: 33 m

Jelenlegi meteorológiai megfigyelések

A jelentés 36 perccel ezelõtt készült, 22:00 UTC
Nyugati szél 7 kt
Hőmérséklet -10°C
Páratartalom 67%
Légköri nyomás 1016 hPa
Látótávolság: 24.1 km
Kevés felhő 6000 lábon
Záporok a közelben

METAR: CYGP 072200Z 28007KT 15SM VCSH FEW060 M10/M15 A3000 RMK SC2 SLP165

Idő: 17:36 (22:36 UTC)

Előrejelzés

A jelentés 2 órával és 53 perccel ezelõtt készült, 19:43 UTC
Az előrejelzés 07-én 20 óra UTC és 08-én 08 óra UTC között érvényes
Nyugati szél 12 kt széllökések: 22 kt
Látótávolság: 10 km
Szakadozott felhőzet 3000 lábon
07-én 20 óra UTC és 08-én 08 óra UTC között ideiglenes
Kevés felhő 3000 lábon

TAF: CYGP 071943Z 0720/0808 28012G22KT P6SM BKN030 TEMPO 0720/0808 FEW030 RMK NXT FCST BY 080200Z

Meteorológiai megfigyelések és előrejelzések több, mint 4000 repülőtéren (METAR és TAF jelentéseket).

A térképen piros és sárga pontok jelzik az elérhető meteorológiai állomásokat.

Mozgassa az egeret a pont fölött, hogy megjelenjen az állomás neve.

Azután kattintson az időjárási megfigyelések és előrejelzések megtekintéséhez.

A térkép megváltoztatása: kattintson a fekete keresztel jelölt zöld gombra ráközelítéshez, a vonallal jelölt zöld gombra távolításhoz, vagy a zöld nyilakra a szomszédos térképek eléréséhez.


METAR-TAF: